createdAt,value
2018-05-31T00:01:00.421Z,5.23
2018-05-31T00:03:32.969Z,5.40
2018-05-31T00:06:05.528Z,5.90
2018-05-31T00:08:38.129Z,5.23
2018-05-31T00:11:10.674Z,5.63
2018-05-31T00:13:43.222Z,5.37
2018-05-31T00:16:15.794Z,5.50
2018-05-31T00:18:48.333Z,5.43
2018-05-31T00:21:20.894Z,5.10
2018-05-31T00:23:53.465Z,5.63
2018-05-31T00:26:26.037Z,5.50
2018-05-31T00:28:59.371Z,5.00
2018-05-31T00:31:31.917Z,5.10
2018-05-31T00:34:04.530Z,5.40
2018-05-31T00:36:37.922Z,5.40
2018-05-31T00:39:10.492Z,5.87
2018-05-31T00:41:43.037Z,5.30
2018-05-31T00:44:15.601Z,5.53
2018-05-31T00:46:48.185Z,5.93
2018-05-31T00:49:20.742Z,6.00
2018-05-31T00:51:53.300Z,5.63
2018-05-31T00:54:25.841Z,5.67
2018-05-31T00:56:58.497Z,5.47
2018-05-31T00:59:31.035Z,5.37
2018-05-31T01:02:03.735Z,5.63
2018-05-31T01:04:36.311Z,5.67
2018-05-31T01:07:09.055Z,6.27
2018-05-31T01:09:41.624Z,6.10
2018-05-31T01:12:14.205Z,6.63
2018-05-31T01:14:46.746Z,6.13
2018-05-31T01:17:19.425Z,5.67
2018-05-31T01:19:51.964Z,5.50
2018-05-31T01:22:24.526Z,5.97
2018-05-31T01:24:57.073Z,6.10
2018-05-31T01:27:29.659Z,5.80
2018-05-31T01:30:02.197Z,6.30
2018-05-31T01:32:34.934Z,6.77
2018-05-31T01:35:07.529Z,6.30
2018-05-31T01:37:40.842Z,5.97
2018-05-31T01:40:14.152Z,5.80
2018-05-31T01:42:47.484Z,5.80
2018-05-31T01:45:20.017Z,5.80
2018-05-31T01:47:52.597Z,6.43
2018-05-31T01:50:25.136Z,5.70
2018-05-31T01:52:57.694Z,5.90
2018-05-31T01:55:30.223Z,6.07
2018-05-31T01:58:02.760Z,6.30
2018-05-31T02:00:35.279Z,6.00
2018-05-31T02:03:07.811Z,6.10
2018-05-31T02:05:40.335Z,6.20
2018-05-31T02:08:12.912Z,6.20
2018-05-31T02:10:45.440Z,6.87
2018-05-31T02:13:18.852Z,6.47
2018-05-31T02:15:51.392Z,6.43
2018-05-31T02:18:23.938Z,5.90
2018-05-31T02:20:57.224Z,5.83
2018-05-31T02:23:29.777Z,6.27
2018-05-31T02:26:02.313Z,6.00
2018-05-31T02:28:34.868Z,6.57
2018-05-31T02:31:07.401Z,6.40
2018-05-31T02:33:40.724Z,6.53
2018-05-31T02:36:13.248Z,6.07
2018-05-31T02:38:45.785Z,6.23
2018-05-31T02:41:19.081Z,6.00
2018-05-31T02:43:51.648Z,5.60
2018-05-31T02:46:24.180Z,5.73
2018-05-31T02:48:56.741Z,6.43
2018-05-31T02:51:29.276Z,6.10
2018-05-31T02:54:01.817Z,6.33
2018-05-31T02:56:34.361Z,6.17
2018-05-31T02:59:06.944Z,6.50
2018-05-31T03:01:39.476Z,6.37
2018-05-31T03:04:12.012Z,6.40
2018-05-31T03:06:44.532Z,6.53
2018-05-31T03:09:17.148Z,6.33
2018-05-31T03:11:49.691Z,6.80
2018-05-31T03:14:22.216Z,6.20
2018-05-31T03:16:54.743Z,6.90
2018-05-31T03:19:28.043Z,7.07
2018-05-31T03:22:00.573Z,6.87
2018-05-31T03:24:33.134Z,6.93
2018-05-31T03:27:06.428Z,6.87
2018-05-31T03:29:38.964Z,7.10
2018-05-31T03:32:11.512Z,7.27
2018-05-31T03:34:44.835Z,7.80
2018-05-31T03:37:18.140Z,6.73
2018-05-31T03:39:51.464Z,7.47
2018-05-31T03:42:24.041Z,6.93
2018-05-31T03:44:56.929Z,7.03
2018-05-31T03:47:30.240Z,7.70
2018-05-31T03:50:03.672Z,7.00
2018-05-31T03:52:36.964Z,7.27
2018-05-31T03:55:10.272Z,7.10
2018-05-31T03:57:43.564Z,7.10
2018-05-31T04:00:16.124Z,7.20
2018-05-31T04:02:48.684Z,7.43
2018-05-31T04:05:21.241Z,7.93
2018-05-31T04:07:54.577Z,7.43
2018-05-31T04:10:27.149Z,7.80
2018-05-31T04:12:59.738Z,7.57
2018-05-31T04:15:32.266Z,7.50
2018-05-31T04:18:04.783Z,8.83
2018-05-31T04:20:37.335Z,8.40
2018-05-31T04:23:09.887Z,9.23
2018-05-31T04:25:43.224Z,13.73
2018-05-31T04:28:15.747Z,11.90
2018-05-31T04:30:48.300Z,11.07
2018-05-31T04:33:20.828Z,11.63
2018-05-31T04:35:53.380Z,10.37
2018-05-31T04:38:25.913Z,9.63
2018-05-31T04:40:58.472Z,10.57
2018-05-31T04:43:31.018Z,10.90
2018-05-31T04:46:04.363Z,10.87
2018-05-31T04:48:37.687Z,10.43
2018-05-31T04:51:10.253Z,11.37
2018-05-31T04:53:42.776Z,10.27
2018-05-31T04:56:15.335Z,9.77
2018-05-31T04:58:47.867Z,11.23
2018-05-31T05:01:20.429Z,10.27
2018-05-31T05:03:52.953Z,9.43
2018-05-31T05:06:25.506Z,10.27
2018-05-31T05:08:58.032Z,10.83
2018-05-31T05:11:30.586Z,10.53
2018-05-31T05:14:03.115Z,10.97
2018-05-31T05:16:35.671Z,10.53
2018-05-31T05:19:08.223Z,10.87
2018-05-31T05:21:40.803Z,11.43
2018-05-31T05:24:14.108Z,10.37
2018-05-31T05:26:47.411Z,10.80
2018-05-31T05:29:20.718Z,10.90
2018-05-31T05:31:54.060Z,10.73
2018-05-31T05:34:26.592Z,10.40
2018-05-31T05:36:59.155Z,10.73
2018-05-31T05:39:31.710Z,10.30
2018-05-31T05:42:05.032Z,10.20
2018-05-31T05:44:38.480Z,10.17
2018-05-31T05:47:11.052Z,10.53
2018-05-31T05:49:43.595Z,9.60
2018-05-31T05:52:16.176Z,10.13
2018-05-31T05:54:48.768Z,10.93
2018-05-31T05:57:21.332Z,11.13
2018-05-31T05:59:53.867Z,10.57
2018-05-31T06:02:27.184Z,10.80
2018-05-31T06:04:59.723Z,10.70
2018-05-31T06:07:32.341Z,10.53
2018-05-31T06:10:05.689Z,10.47
2018-05-31T06:12:38.212Z,10.77
2018-05-31T06:15:10.752Z,10.87
2018-05-31T06:17:43.320Z,10.50
2018-05-31T06:20:16.620Z,10.47
2018-05-31T06:22:49.164Z,10.80
2018-05-31T06:25:21.696Z,11.43
2018-05-31T06:27:54.260Z,11.13
2018-05-31T06:30:26.813Z,11.57
2018-05-31T06:32:59.378Z,10.57
2018-05-31T06:35:32.725Z,11.13
2018-05-31T06:38:05.298Z,10.37
2018-05-31T06:40:38.589Z,10.93
2018-05-31T06:43:11.925Z,11.03
2018-05-31T06:45:44.501Z,11.03
2018-05-31T06:48:17.847Z,11.53
2018-05-31T06:50:50.375Z,11.07
2018-05-31T06:53:22.923Z,10.47
2018-05-31T06:55:55.508Z,10.93
2018-05-31T06:58:28.071Z,11.00
2018-05-31T07:01:01.359Z,11.43
2018-05-31T07:03:33.908Z,11.30
2018-05-31T07:06:06.453Z,11.13
2018-05-31T07:08:39.756Z,11.23
2018-05-31T07:11:12.277Z,11.90
2018-05-31T07:13:44.844Z,12.20
2018-05-31T07:16:17.371Z,11.20
2018-05-31T07:18:49.924Z,11.37
2018-05-31T07:21:22.453Z,12.27
2018-05-31T07:23:55.025Z,11.67
2018-05-31T07:26:27.555Z,11.43
2018-05-31T07:29:00.093Z,12.10
2018-05-31T07:31:32.612Z,11.20
2018-05-31T07:34:05.148Z,12.40
2018-05-31T07:36:37.688Z,10.97
2018-05-31T07:39:10.248Z,11.80
2018-05-31T07:41:42.788Z,12.17
2018-05-31T07:44:15.361Z,11.33
2018-05-31T07:46:47.883Z,11.30
2018-05-31T07:49:20.483Z,10.73
2018-05-31T07:51:53.011Z,11.80
2018-05-31T07:54:25.591Z,11.37
2018-05-31T07:56:58.149Z,12.17
2018-05-31T07:59:30.719Z,10.20
2018-05-31T08:02:03.247Z,10.23
2018-05-31T08:04:36.579Z,10.33
2018-05-31T08:07:09.116Z,10.93
2018-05-31T08:09:41.647Z,11.27
2018-05-31T08:12:14.189Z,10.17
2018-05-31T08:14:46.727Z,10.53
2018-05-31T08:17:19.252Z,9.90
2018-05-31T08:19:51.826Z,10.13
2018-05-31T08:22:24.350Z,10.23
2018-05-31T08:24:56.884Z,9.97
2018-05-31T08:27:29.436Z,9.97
2018-05-31T08:30:01.990Z,9.30
2018-05-31T08:32:34.537Z,9.20
2018-05-31T08:35:07.278Z,9.37
2018-05-31T08:37:39.811Z,9.70
2018-05-31T08:40:12.352Z,9.47
2018-05-31T08:42:44.899Z,9.37
2018-05-31T08:45:18.220Z,9.23
2018-05-31T08:47:50.755Z,8.97
2018-05-31T08:50:23.292Z,8.90
2018-05-31T08:52:55.844Z,8.33
2018-05-31T08:55:28.399Z,7.73
2018-05-31T08:58:00.916Z,8.23
2018-05-31T09:00:33.452Z,8.30
2018-05-31T09:03:05.981Z,8.30
2018-05-31T09:05:38.540Z,7.10
2018-05-31T09:08:11.065Z,8.70
2018-05-31T09:10:43.622Z,8.20
2018-05-31T09:13:16.156Z,6.80
2018-05-31T09:15:48.703Z,7.50
2018-05-31T09:18:21.240Z,7.03
2018-05-31T09:20:53.800Z,7.13
2018-05-31T09:23:26.316Z,7.80
2018-05-31T09:25:58.852Z,7.27
2018-05-31T09:28:31.407Z,7.43
2018-05-31T09:31:03.936Z,7.13
2018-05-31T09:33:36.474Z,6.73
2018-05-31T09:36:09.025Z,7.40
2018-05-31T09:38:41.546Z,8.13
2018-05-31T09:41:14.136Z,7.60
2018-05-31T09:43:46.615Z,7.17
2018-05-31T09:46:19.184Z,6.97
2018-05-31T09:48:51.700Z,7.33
2018-05-31T09:51:24.252Z,6.77
2018-05-31T09:53:56.776Z,6.00
2018-05-31T09:56:29.328Z,6.70
2018-05-31T09:59:02.608Z,5.03
2018-05-31T10:01:35.157Z,5.20
2018-05-31T10:04:07.673Z,5.03
2018-05-31T10:06:40.194Z,4.17
2018-05-31T10:09:12.714Z,4.80
2018-05-31T10:11:45.251Z,4.60
2018-05-31T10:14:17.772Z,5.15
2018-05-31T10:16:50.311Z,4.87
2018-05-31T10:19:22.828Z,5.15
2018-05-31T10:21:56.144Z,5.00
2018-05-31T10:24:29.433Z,4.60
2018-05-31T10:27:01.981Z,3.92
2018-05-31T10:29:34.501Z,4.05
2018-05-31T10:32:07.051Z,3.63
2018-05-31T10:34:39.573Z,3.97
2018-05-31T10:37:12.150Z,3.78
2018-05-31T10:39:44.674Z,3.50
2018-05-31T10:42:17.209Z,3.72
2018-05-31T10:44:49.724Z,3.72
2018-05-31T10:47:22.272Z,3.67
2018-05-31T10:49:54.791Z,4.07
2018-05-31T10:52:27.340Z,3.70
2018-05-31T10:55:00.942Z,3.75
2018-05-31T10:57:33.499Z,4.22
2018-05-31T11:00:06.020Z,4.25
2018-05-31T11:02:39.343Z,3.70
2018-05-31T11:05:12.644Z,3.80
2018-05-31T11:07:45.960Z,3.85
2018-05-31T11:10:18.475Z,4.15
2018-05-31T11:12:51.016Z,4.22
2018-05-31T11:15:24.299Z,4.28
2018-05-31T11:17:56.833Z,4.10
2018-05-31T11:20:29.367Z,4.43
2018-05-31T11:23:01.907Z,4.18
2018-05-31T11:25:35.192Z,3.70
2018-05-31T11:28:08.503Z,4.00
2018-05-31T11:30:41.804Z,4.28
2018-05-31T11:33:14.344Z,3.80
2018-05-31T11:35:46.860Z,4.20
2018-05-31T11:38:19.411Z,4.37
2018-05-31T11:40:51.932Z,4.07
2018-05-31T11:43:24.472Z,3.90
2018-05-31T11:45:57.761Z,4.40
2018-05-31T11:48:30.315Z,4.15
2018-05-31T11:51:02.839Z,4.50
2018-05-31T11:53:35.376Z,4.80
2018-05-31T11:56:07.907Z,4.72
2018-05-31T11:58:40.452Z,4.10
2018-05-31T12:01:13.222Z,4.40
2018-05-31T12:03:45.807Z,3.90
2018-05-31T12:06:18.324Z,4.40
2018-05-31T12:08:50.859Z,4.20
2018-05-31T12:11:23.371Z,4.20
2018-05-31T12:13:56.691Z,4.45
2018-05-31T12:16:29.979Z,4.07
2018-05-31T12:19:02.523Z,4.10
2018-05-31T12:21:35.036Z,4.20
2018-05-31T12:24:07.595Z,4.30
2018-05-31T12:26:40.110Z,4.40
2018-05-31T12:29:12.645Z,3.70
2018-05-31T12:31:45.931Z,4.22
2018-05-31T12:34:18.493Z,4.45
2018-05-31T12:36:51.023Z,4.07
2018-05-31T12:39:23.568Z,4.07
2018-05-31T12:41:56.085Z,4.32
2018-05-31T12:44:28.640Z,4.40
2018-05-31T12:47:01.177Z,4.70
2018-05-31T12:49:33.727Z,4.60
2018-05-31T12:52:06.244Z,4.90
2018-05-31T12:54:38.776Z,4.45
2018-05-31T12:57:11.303Z,4.43
2018-05-31T12:59:43.862Z,4.10
2018-05-31T13:02:16.404Z,4.07
2018-05-31T13:04:48.972Z,4.80
2018-05-31T13:07:21.495Z,4.18
2018-05-31T13:09:54.036Z,4.40
2018-05-31T13:12:26.595Z,4.35
2018-05-31T13:14:59.207Z,4.62
2018-05-31T13:17:32.451Z,4.78
2018-05-31T13:20:05.014Z,5.18
2018-05-31T13:22:37.539Z,4.60
2018-05-31T13:25:10.085Z,4.90
2018-05-31T13:27:42.605Z,4.53
2018-05-31T13:30:15.155Z,4.15
2018-05-31T13:32:47.676Z,4.32
2018-05-31T13:35:20.237Z,4.53
2018-05-31T13:37:52.753Z,4.20
2018-05-31T13:40:25.323Z,4.25
2018-05-31T13:42:57.849Z,4.18
2018-05-31T13:45:30.382Z,4.70
2018-05-31T13:48:02.896Z,4.40
2018-05-31T13:50:35.443Z,4.25
2018-05-31T13:53:08.724Z,4.37
2018-05-31T13:55:41.276Z,4.78
2018-05-31T13:58:13.792Z,4.00
2018-05-31T14:00:46.329Z,4.37
2018-05-31T14:03:18.846Z,4.35
2018-05-31T14:05:51.405Z,4.40
2018-05-31T14:08:23.924Z,4.32
2018-05-31T14:10:56.474Z,4.47
2018-05-31T14:13:29.751Z,5.18
2018-05-31T14:16:02.310Z,4.53
2018-05-31T14:18:34.833Z,4.37
2018-05-31T14:21:07.388Z,4.15
2018-05-31T14:23:39.918Z,4.25
2018-05-31T14:26:12.457Z,4.20
2018-05-31T14:28:44.983Z,4.30
2018-05-31T14:31:17.546Z,5.07
2018-05-31T14:33:50.073Z,4.25
2018-05-31T14:36:22.624Z,4.45
2018-05-31T14:38:55.144Z,4.78
2018-05-31T14:41:27.723Z,4.25
2018-05-31T14:44:00.240Z,4.43
2018-05-31T14:46:32.782Z,4.45
2018-05-31T14:49:06.115Z,4.28
2018-05-31T14:51:39.399Z,4.30
2018-05-31T14:54:12.755Z,4.82
2018-05-31T14:56:45.346Z,4.25
2018-05-31T14:59:17.830Z,4.65
2018-05-31T15:01:50.393Z,4.68
2018-05-31T15:04:22.911Z,4.93
2018-05-31T15:06:55.481Z,4.72
2018-05-31T15:09:28.013Z,4.47
2018-05-31T15:12:01.333Z,4.75
2018-05-31T15:14:33.857Z,4.65
2018-05-31T15:17:06.431Z,4.80
2018-05-31T15:19:38.948Z,4.75
2018-05-31T15:22:11.485Z,4.90
2018-05-31T15:24:44.047Z,4.70
2018-05-31T15:27:17.376Z,4.68
2018-05-31T15:29:49.901Z,5.20
2018-05-31T15:32:22.468Z,5.10
2018-05-31T15:34:55.014Z,4.75
2018-05-31T15:37:27.559Z,4.62
2018-05-31T15:40:00.081Z,4.57
2018-05-31T15:42:32.659Z,5.03
2018-05-31T15:45:05.176Z,5.05
2018-05-31T15:47:37.728Z,5.07
2018-05-31T15:50:10.256Z,5.00
2018-05-31T15:52:42.814Z,4.70
2018-05-31T15:55:15.343Z,5.28
2018-05-31T15:57:48.647Z,5.90
2018-05-31T16:00:21.947Z,4.75
2018-05-31T16:02:54.505Z,5.10
2018-05-31T16:05:27.037Z,6.40
2018-05-31T16:07:59.599Z,7.00
2018-05-31T16:10:32.238Z,5.72
2018-05-31T16:13:04.815Z,7.22
2018-05-31T16:15:38.091Z,5.60
2018-05-31T16:18:10.648Z,4.97
2018-05-31T16:20:43.165Z,4.90
2018-05-31T16:23:15.749Z,4.70
2018-05-31T16:25:48.267Z,4.50
2018-05-31T16:28:20.808Z,4.70
2018-05-31T16:30:53.323Z,5.43
2018-05-31T16:33:25.927Z,6.70
2018-05-31T16:35:58.448Z,6.28
2018-05-31T16:38:31.745Z,4.90
2018-05-31T16:41:04.272Z,5.22
2018-05-31T16:43:36.796Z,4.82
2018-05-31T16:46:09.346Z,5.03
2018-05-31T16:48:41.916Z,5.00
2018-05-31T16:51:15.224Z,5.40
2018-05-31T16:53:48.566Z,4.47
2018-05-31T16:56:21.104Z,5.40
2018-05-31T16:58:53.649Z,5.00
2018-05-31T17:01:26.159Z,4.87
2018-05-31T17:03:58.712Z,5.03
2018-05-31T17:06:31.236Z,5.03
2018-05-31T17:09:03.788Z,4.93
2018-05-31T17:11:36.310Z,5.78
2018-05-31T17:14:08.852Z,5.15
2018-05-31T17:16:42.153Z,5.30
2018-05-31T17:19:14.696Z,5.00
2018-05-31T17:21:47.225Z,5.30
2018-05-31T17:24:20.523Z,5.60
2018-05-31T17:26:53.039Z,4.75
2018-05-31T17:29:25.655Z,5.15
2018-05-31T17:31:58.244Z,5.03
2018-05-31T17:34:30.824Z,5.35
2018-05-31T17:37:03.381Z,5.70
2018-05-31T17:39:36.709Z,4.85
2018-05-31T17:42:09.993Z,4.82
2018-05-31T17:44:42.547Z,4.60
2018-05-31T17:47:15.218Z,5.00
2018-05-31T17:49:48.593Z,5.00
2018-05-31T17:52:21.152Z,5.43
2018-05-31T17:54:53.916Z,5.23
2018-05-31T17:57:26.445Z,5.40
2018-05-31T17:59:58.995Z,5.07
2018-05-31T18:02:31.511Z,5.10
2018-05-31T18:05:04.091Z,4.90
2018-05-31T18:07:36.616Z,5.30
2018-05-31T18:10:09.261Z,5.47
2018-05-31T18:12:41.805Z,5.33
2018-05-31T18:15:15.104Z,5.03
2018-05-31T18:17:47.619Z,5.67
2018-05-31T18:20:20.171Z,5.13
2018-05-31T18:22:52.691Z,5.20
2018-05-31T18:25:25.995Z,5.27
2018-05-31T18:27:58.515Z,4.90
2018-05-31T18:30:31.106Z,5.30
2018-05-31T18:33:03.669Z,4.97
2018-05-31T18:35:36.998Z,5.00
2018-05-31T18:38:09.547Z,5.23
2018-05-31T18:40:42.124Z,5.20
2018-05-31T18:43:14.700Z,5.67
2018-05-31T18:45:47.237Z,4.80
2018-05-31T18:48:20.548Z,4.73
2018-05-31T18:50:53.861Z,4.73
2018-05-31T18:53:26.388Z,5.50
2018-05-31T18:55:58.940Z,5.30
2018-05-31T18:58:31.470Z,5.63
2018-05-31T19:01:04.021Z,5.03
2018-05-31T19:03:36.565Z,6.67
2018-05-31T19:06:09.117Z,5.73
2018-05-31T19:08:41.657Z,6.97
2018-05-31T19:11:14.216Z,5.60
2018-05-31T19:13:58.052Z,5.20
2018-05-31T19:16:30.586Z,5.37
2018-05-31T19:19:08.779Z,4.97
2018-05-31T19:21:41.311Z,5.53
2018-05-31T19:24:19.612Z,5.43
2018-05-31T19:26:53.200Z,5.00
2018-05-31T19:29:25.725Z,4.87
2018-05-31T19:31:58.267Z,4.63
2018-05-31T19:34:30.909Z,4.73
2018-05-31T19:37:09.080Z,4.40
2018-05-31T19:39:41.622Z,4.67
2018-05-31T19:42:19.937Z,4.80
2018-05-31T19:44:52.478Z,4.60
2018-05-31T19:47:25.780Z,5.10
2018-05-31T19:49:58.299Z,4.50
2018-05-31T19:52:36.608Z,4.63
2018-05-31T19:55:09.136Z,4.13
2018-05-31T19:57:47.316Z,4.67
2018-05-31T20:00:25.400Z,4.77
2018-05-31T20:03:05.628Z,4.83
2018-05-31T20:05:38.145Z,4.40
2018-05-31T20:08:10.704Z,5.23
2018-05-31T20:10:43.232Z,4.80
2018-05-31T20:13:15.779Z,4.70
2018-05-31T20:15:48.301Z,4.90
2018-05-31T20:18:20.859Z,4.17
2018-05-31T20:20:53.419Z,4.27
2018-05-31T20:23:25.924Z,4.53
2018-05-31T20:25:58.440Z,4.37
2018-05-31T20:28:30.994Z,4.47
2018-05-31T20:31:03.527Z,4.57
2018-05-31T20:33:36.083Z,4.90
2018-05-31T20:36:08.600Z,4.37
2018-05-31T20:38:41.183Z,4.47
2018-05-31T20:41:13.684Z,5.10
2018-05-31T20:43:46.242Z,4.73
2018-05-31T20:46:18.752Z,4.10
2018-05-31T20:48:51.311Z,4.73
2018-05-31T20:51:23.844Z,4.37
2018-05-31T20:53:56.386Z,5.10
2018-05-31T20:56:28.905Z,4.47
2018-05-31T20:59:01.445Z,4.70
2018-05-31T21:01:34.737Z,4.50
2018-05-31T21:04:07.313Z,4.27
2018-05-31T21:06:39.834Z,4.77
2018-05-31T21:09:13.152Z,4.17
2018-05-31T21:11:45.726Z,4.03
2018-05-31T21:14:18.228Z,4.10
2018-05-31T21:16:51.507Z,4.27
2018-05-31T21:19:24.063Z,4.10
2018-05-31T21:21:56.588Z,4.30
2018-05-31T21:24:29.137Z,4.27
2018-05-31T21:27:01.652Z,3.70
2018-05-31T21:29:38.221Z,4.00
2018-05-31T21:32:10.744Z,4.17
2018-05-31T21:34:43.275Z,4.20
2018-05-31T21:37:15.797Z,3.93
2018-05-31T21:39:48.348Z,4.00
2018-05-31T21:42:20.872Z,4.50
2018-05-31T21:44:53.423Z,4.80
2018-05-31T21:47:25.943Z,3.93
2018-05-31T21:49:58.493Z,3.73
2018-05-31T21:52:31.781Z,3.90
2018-05-31T21:55:04.335Z,4.17
2018-05-31T21:57:36.868Z,4.00
2018-05-31T22:00:09.406Z,4.30
2018-05-31T22:02:41.944Z,4.13
2018-05-31T22:05:14.492Z,4.00
2018-05-31T22:07:47.023Z,4.33
2018-05-31T22:10:19.652Z,4.07
2018-05-31T22:12:52.185Z,4.33
2018-05-31T22:15:24.793Z,4.07
2018-05-31T22:17:58.129Z,4.20
2018-05-31T22:20:30.671Z,4.50
2018-05-31T22:23:03.209Z,3.93
2018-05-31T22:25:35.763Z,4.03
2018-05-31T22:28:08.292Z,3.80
2018-05-31T22:30:40.839Z,4.10
2018-05-31T22:33:13.369Z,4.90
2018-05-31T22:35:45.916Z,4.20
2018-05-31T22:38:18.436Z,3.80
2018-05-31T22:40:51.756Z,4.40
2018-05-31T22:43:24.272Z,4.10
2018-05-31T22:45:56.827Z,4.33
2018-05-31T22:48:29.359Z,4.20
2018-05-31T22:51:01.924Z,4.50
2018-05-31T22:53:34.444Z,4.10
2018-05-31T22:56:07.008Z,4.37
2018-05-31T22:58:39.533Z,4.37
2018-05-31T23:01:12.089Z,4.80
2018-05-31T23:03:44.616Z,4.30
2018-05-31T23:06:17.157Z,4.80
2018-05-31T23:08:49.675Z,4.77
2018-05-31T23:11:23.215Z,4.77
2018-05-31T23:13:55.732Z,4.40
2018-05-31T23:16:29.079Z,4.80
2018-05-31T23:19:01.608Z,4.93
2018-05-31T23:21:34.168Z,5.00
2018-05-31T23:24:06.687Z,5.10
2018-05-31T23:26:39.225Z,4.70
2018-05-31T23:29:11.752Z,4.83
2018-05-31T23:31:44.316Z,4.90
2018-05-31T23:34:16.850Z,4.97
2018-05-31T23:36:49.427Z,6.00
2018-05-31T23:39:22.006Z,5.47
2018-05-31T23:41:54.528Z,5.03
2018-05-31T23:44:27.819Z,5.10
2018-05-31T23:47:00.369Z,5.23
2018-05-31T23:49:32.927Z,4.93
2018-05-31T23:52:06.264Z,5.13
2018-05-31T23:54:38.844Z,5.10
2018-05-31T23:57:12.152Z,4.83
2018-05-31T23:59:44.731Z,4.63
